LYBE/BEG METAR and TAF weather

Enter ICAO airport designator
Station Type Date Time Source
LYBE METAR 2021/04/13 07:00 UTC NOAA

LYBE 130700Z 27005KT 9999 BKN018 07/03 Q1018 NOSIG


Station Type Date Time Source
LYBE Decoded METAR 2021/04/13 07:00 UTC NOAA

Beograd / Surcin, Serbia and Montenegro (LYBE) 44-49N 020-17E 99M
Apr 13, 2021 - 03:00 AM EDT / 2021.04.13 0700 UTC
Wind: from the W (270 degrees) at 6 MPH (5 KT):0
Visibility: greater than 7 mile(s):0
Sky conditions: mostly cloudy
Temperature: 44 F (7 C)
Dew Point: 37 F (3 C)
Relative Humidity: 75%
Pressure (altimeter): 30.06 in. Hg (1018 hPa)
ob: LYBE 130700Z 27005KT 9999 BKN018 07/03 Q1018 NOSIG
cycle: 7

Station Type Date Time Source
LYBE TAF 2021/04/13 06:21 UTC NOAA

TAF LYBE 130500Z 1306/1406 32009KT 9999 BKN015 BKN030 TX09/1310Z TN02/1404Z
BECMG 1308/1310 4000 RA BKN008 BKN025
TEMPO 1323/1406 2000 SNRA

Example: see airport list